Star Lake, Wisconsin
Current Conditions -  °F | °C
As of 6:35 AM on Monday 20 Oct 2014 (Local Time) from KEGV Reporting Station
Drizzle Drizzle  
Wind Chill: 41°   Ceiling: 1300
Heat Index: 44°   Visibility: 5mi
Dew Point: 43°   Wind: 5mph
Humidity: 96%   Direction: 350°N
Pressure: 29.82"   Gusts: NA
Location:  46.04°N, 89.47°W
Report Text: KEGV 201135Z AUTO 35004KT 5SM -DZ OVC013 07/06 A2982 RMK AO2 T00650059
Loading
Personal Weather Stations






























Interactive Weather Map
Tropical Storm Tracking
New forecast layout! Learn more

10-Day Weather Forecast

Advertisements
Track Severe Weather on mobile